sensor_id;sensor_type;location;lat;lon;timestamp;P1;durP1;ratioP1;P2;durP2;ratioP2
6860;SDS011;3469;47.060;15.460;2022-08-21T00:02:04;1.17;;;1.07;;
6860;SDS011;3469;47.060;15.460;2022-08-21T00:04:32;1.40;;;1.10;;
6860;SDS011;3469;47.060;15.460;2022-08-21T00:07:00;2.30;;;1.37;;
6860;SDS011;3469;47.060;15.460;2022-08-21T00:09:28;1.40;;;1.20;;
6860;SDS011;3469;47.060;15.460;2022-08-21T00:11:57;3.00;;;1.33;;
6860;SDS011;3469;47.060;15.460;2022-08-21T00:14:25;1.27;;;1.03;;
6860;SDS011;3469;47.060;15.460;2022-08-21T00:16:57;1.30;;;1.10;;
6860;SDS011;3469;47.060;15.460;2022-08-21T00:19:27;1.20;;;1.10;;
6860;SDS011;3469;47.060;15.460;2022-08-21T00:21:55;1.30;;;1.10;;
6860;SDS011;3469;47.060;15.460;2022-08-21T00:24:24;2.43;;;1.43;;
6860;SDS011;3469;47.060;15.460;2022-08-21T00:26:52;1.40;;;1.17;;
6860;SDS011;3469;47.060;15.460;2022-08-21T00:29:21;1.73;;;1.50;;
6860;SDS011;3469;47.060;15.460;2022-08-21T00:31:49;1.90;;;1.30;;
6860;SDS011;3469;47.060;15.460;2022-08-21T00:34:17;1.40;;;1.10;;
6860;SDS011;3469;47.060;15.460;2022-08-21T00:36:47;1.20;;;1.10;;
6860;SDS011;3469;47.060;15.460;2022-08-21T00:39:15;2.27;;;1.50;;
6860;SDS011;3469;47.060;15.460;2022-08-21T00:41:44;2.30;;;1.40;;
6860;SDS011;3469;47.060;15.460;2022-08-21T00:44:13;1.40;;;1.30;;
6860;SDS011;3469;47.060;15.460;2022-08-21T00:46:42;1.80;;;1.70;;
6860;SDS011;3469;47.060;15.460;2022-08-21T00:49:11;1.83;;;1.60;;
6860;SDS011;3469;47.060;15.460;2022-08-21T00:51:47;2.37;;;1.50;;
6860;SDS011;3469;47.060;15.460;2022-08-21T00:54:19;2.03;;;1.40;;
6860;SDS011;3469;47.060;15.460;2022-08-21T00:56:59;2.83;;;1.60;;
6860;SDS011;3469;47.060;15.460;2022-08-21T00:59:31;1.63;;;1.40;;
6860;SDS011;3469;47.060;15.460;2022-08-21T01:02:01;1.80;;;1.37;;
6860;SDS011;3469;47.060;15.460;2022-08-21T01:04:31;1.60;;;1.50;;
6860;SDS011;3469;47.060;15.460;2022-08-21T01:07:00;1.43;;;1.30;;
6860;SDS011;3469;47.060;15.460;2022-08-21T01:09:29;2.80;;;1.43;;
6860;SDS011;3469;47.060;15.460;2022-08-21T01:11:57;1.73;;;1.33;;
6860;SDS011;3469;47.060;15.460;2022-08-21T01:14:26;1.33;;;1.23;;
6860;SDS011;3469;47.060;15.460;2022-08-21T01:16:55;1.50;;;1.40;;
6860;SDS011;3469;47.060;15.460;2022-08-21T01:19:24;1.50;;;1.40;;
6860;SDS011;3469;47.060;15.460;2022-08-21T01:21:57;1.60;;;1.50;;
6860;SDS011;3469;47.060;15.460;2022-08-21T01:24:26;1.20;;;1.10;;
6860;SDS011;3469;47.060;15.460;2022-08-21T01:26:54;3.80;;;1.30;;
6860;SDS011;3469;47.060;15.460;2022-08-21T01:29:26;1.43;;;1.33;;
6860;SDS011;3469;47.060;15.460;2022-08-21T01:31:59;2.13;;;1.50;;
6860;SDS011;3469;47.060;15.460;2022-08-21T01:34:27;1.63;;;1.40;;
6860;SDS011;3469;47.060;15.460;2022-08-21T01:36:57;2.37;;;1.10;;
6860;SDS011;3469;47.060;15.460;2022-08-21T01:39:25;2.60;;;1.57;;
6860;SDS011;3469;47.060;15.460;2022-08-21T01:41:54;1.17;;;1.03;;
6860;SDS011;3469;47.060;15.460;2022-08-21T01:44:22;1.37;;;1.17;;
6860;SDS011;3469;47.060;15.460;2022-08-21T01:46:52;1.40;;;1.30;;
6860;SDS011;3469;47.060;15.460;2022-08-21T01:49:20;1.40;;;1.30;;
6860;SDS011;3469;47.060;15.460;2022-08-21T01:51:48;1.73;;;1.30;;
6860;SDS011;3469;47.060;15.460;2022-08-21T01:54:18;1.13;;;1.03;;
6860;SDS011;3469;47.060;15.460;2022-08-21T01:56:47;1.40;;;1.30;;
6860;SDS011;3469;47.060;15.460;2022-08-21T01:59:17;2.47;;;1.60;;
6860;SDS011;3469;47.060;15.460;2022-08-21T02:01:45;2.40;;;1.53;;
6860;SDS011;3469;47.060;15.460;2022-08-21T02:04:13;1.47;;;1.20;;
6860;SDS011;3469;47.060;15.460;2022-08-21T02:06:42;2.43;;;1.50;;
6860;SDS011;3469;47.060;15.460;2022-08-21T02:09:10;2.70;;;1.80;;
6860;SDS011;3469;47.060;15.460;2022-08-21T02:11:42;1.30;;;1.20;;
6860;SDS011;3469;47.060;15.460;2022-08-21T02:14:12;1.50;;;1.30;;
6860;SDS011;3469;47.060;15.460;2022-08-21T02:16:58;1.97;;;1.27;;
6860;SDS011;3469;47.060;15.460;2022-08-21T02:19:34;1.87;;;1.70;;
6860;SDS011;3469;47.060;15.460;2022-08-21T02:22:06;1.60;;;1.50;;
6860;SDS011;3469;47.060;15.460;2022-08-21T02:24:35;1.43;;;1.30;;
6860;SDS011;3469;47.060;15.460;2022-08-21T02:27:22;1.67;;;1.40;;
6860;SDS011;3469;47.060;15.460;2022-08-21T02:29:53;1.80;;;1.40;;
6860;SDS011;3469;47.060;15.460;2022-08-21T02:32:23;2.23;;;1.70;;
6860;SDS011;3469;47.060;15.460;2022-08-21T02:34:52;1.53;;;1.43;;
6860;SDS011;3469;47.060;15.460;2022-08-21T02:37:20;1.40;;;1.20;;
6860;SDS011;3469;47.060;15.460;2022-08-21T02:39:49;1.53;;;1.43;;
6860;SDS011;3469;47.060;15.460;2022-08-21T02:42:17;1.40;;;1.30;;
6860;SDS011;3469;47.060;15.460;2022-08-21T02:44:47;1.37;;;1.27;;
6860;SDS011;3469;47.060;15.460;2022-08-21T02:47:15;2.30;;;1.73;;
6860;SDS011;3469;47.060;15.460;2022-08-21T02:49:44;1.53;;;1.30;;
6860;SDS011;3469;47.060;15.460;2022-08-21T02:52:12;2.13;;;1.60;;
6860;SDS011;3469;47.060;15.460;2022-08-21T02:54:41;1.70;;;1.60;;
6860;SDS011;3469;47.060;15.460;2022-08-21T02:57:09;2.10;;;1.90;;
6860;SDS011;3469;47.060;15.460;2022-08-21T02:59:37;1.33;;;1.23;;
6860;SDS011;3469;47.060;15.460;2022-08-21T03:02:09;1.40;;;1.30;;
6860;SDS011;3469;47.060;15.460;2022-08-21T03:04:37;1.27;;;1.17;;
6860;SDS011;3469;47.060;15.460;2022-08-21T03:07:12;1.83;;;1.63;;
6860;SDS011;3469;47.060;15.460;2022-08-21T03:09:40;1.60;;;1.40;;
6860;SDS011;3469;47.060;15.460;2022-08-21T03:12:21;1.93;;;1.20;;
6860;SDS011;3469;47.060;15.460;2022-08-21T03:14:49;1.53;;;1.43;;
6860;SDS011;3469;47.060;15.460;2022-08-21T03:17:19;4.80;;;2.00;;
6860;SDS011;3469;47.060;15.460;2022-08-21T03:19:55;2.60;;;1.77;;
6860;SDS011;3469;47.060;15.460;2022-08-21T03:22:24;2.57;;;1.60;;
6860;SDS011;3469;47.060;15.460;2022-08-21T03:24:55;1.43;;;1.30;;
6860;SDS011;3469;47.060;15.460;2022-08-21T03:27:23;1.60;;;1.50;;
6860;SDS011;3469;47.060;15.460;2022-08-21T03:29:55;2.57;;;1.90;;
6860;SDS011;3469;47.060;15.460;2022-08-21T03:32:24;2.03;;;1.87;;
6860;SDS011;3469;47.060;15.460;2022-08-21T03:34:53;2.13;;;1.53;;
6860;SDS011;3469;47.060;15.460;2022-08-21T03:37:21;2.17;;;1.40;;
6860;SDS011;3469;47.060;15.460;2022-08-21T03:39:51;1.50;;;1.40;;
6860;SDS011;3469;47.060;15.460;2022-08-21T03:42:19;3.60;;;1.63;;
6860;SDS011;3469;47.060;15.460;2022-08-21T03:44:48;2.63;;;2.27;;
6860;SDS011;3469;47.060;15.460;2022-08-21T03:47:17;2.30;;;2.10;;
6860;SDS011;3469;47.060;15.460;2022-08-21T03:49:46;2.87;;;1.67;;
6860;SDS011;3469;47.060;15.460;2022-08-21T03:52:14;1.83;;;1.73;;
6860;SDS011;3469;47.060;15.460;2022-08-21T03:54:43;2.23;;;2.03;;
6860;SDS011;3469;47.060;15.460;2022-08-21T03:57:12;3.80;;;1.90;;
6860;SDS011;3469;47.060;15.460;2022-08-21T03:59:40;2.47;;;2.07;;
6860;SDS011;3469;47.060;15.460;2022-08-21T04:02:09;2.23;;;2.03;;
6860;SDS011;3469;47.060;15.460;2022-08-21T04:04:38;3.07;;;1.63;;
6860;SDS011;3469;47.060;15.460;2022-08-21T04:07:07;1.87;;;1.77;;
6860;SDS011;3469;47.060;15.460;2022-08-21T04:09:36;2.80;;;1.97;;
6860;SDS011;3469;47.060;15.460;2022-08-21T04:12:05;2.30;;;2.10;;
6860;SDS011;3469;47.060;15.460;2022-08-21T04:14:33;2.23;;;2.03;;
6860;SDS011;3469;47.060;15.460;2022-08-21T04:17:02;2.73;;;1.53;;
6860;SDS011;3469;47.060;15.460;2022-08-21T04:19:30;2.10;;;1.90;;
6860;SDS011;3469;47.060;15.460;2022-08-21T04:21:58;1.80;;;1.70;;
6860;SDS011;3469;47.060;15.460;2022-08-21T04:24:29;2.13;;;1.73;;
6860;SDS011;3469;47.060;15.460;2022-08-21T04:26:57;2.40;;;1.80;;
6860;SDS011;3469;47.060;15.460;2022-08-21T04:29:26;1.93;;;1.83;;
6860;SDS011;3469;47.060;15.460;2022-08-21T04:31:54;2.10;;;1.63;;
6860;SDS011;3469;47.060;15.460;2022-08-21T04:34:22;1.93;;;1.83;;
6860;SDS011;3469;47.060;15.460;2022-08-21T04:36:50;2.20;;;2.00;;
6860;SDS011;3469;47.060;15.460;2022-08-21T04:39:18;2.20;;;1.97;;
6860;SDS011;3469;47.060;15.460;2022-08-21T04:41:52;2.47;;;1.90;;
6860;SDS011;3469;47.060;15.460;2022-08-21T04:44:20;2.53;;;1.83;;
6860;SDS011;3469;47.060;15.460;2022-08-21T04:46:48;2.37;;;1.80;;
6860;SDS011;3469;47.060;15.460;2022-08-21T04:49:16;3.00;;;1.60;;
6860;SDS011;3469;47.060;15.460;2022-08-21T04:51:44;2.03;;;1.83;;
6860;SDS011;3469;47.060;15.460;2022-08-21T04:54:14;2.67;;;2.10;;
6860;SDS011;3469;47.060;15.460;2022-08-21T04:56:45;2.20;;;1.80;;
6860;SDS011;3469;47.060;15.460;2022-08-21T04:59:17;2.50;;;2.30;;
6860;SDS011;3469;47.060;15.460;2022-08-21T05:01:48;1.83;;;1.73;;
6860;SDS011;3469;47.060;15.460;2022-08-21T05:04:18;2.17;;;2.00;;
6860;SDS011;3469;47.060;15.460;2022-08-21T05:06:49;2.20;;;1.90;;
6860;SDS011;3469;47.060;15.460;2022-08-21T05:09:18;2.87;;;2.07;;
6860;SDS011;3469;47.060;15.460;2022-08-21T05:11:47;2.00;;;1.80;;
6860;SDS011;3469;47.060;15.460;2022-08-21T05:14:17;2.43;;;2.23;;
6860;SDS011;3469;47.060;15.460;2022-08-21T05:16:46;2.27;;;2.07;;
6860;SDS011;3469;47.060;15.460;2022-08-21T05:19:14;2.07;;;1.87;;
6860;SDS011;3469;47.060;15.460;2022-08-21T05:21:43;4.20;;;1.80;;
6860;SDS011;3469;47.060;15.460;2022-08-21T05:24:12;2.50;;;2.13;;
6860;SDS011;3469;47.060;15.460;2022-08-21T05:26:41;2.00;;;1.57;;
6860;SDS011;3469;47.060;15.460;2022-08-21T05:29:12;2.33;;;1.50;;
6860;SDS011;3469;47.060;15.460;2022-08-21T05:31:43;4.80;;;2.03;;
6860;SDS011;3469;47.060;15.460;2022-08-21T05:34:12;3.17;;;1.73;;
6860;SDS011;3469;47.060;15.460;2022-08-21T05:36:42;2.10;;;1.83;;
6860;SDS011;3469;47.060;15.460;2022-08-21T05:39:11;2.07;;;1.93;;
6860;SDS011;3469;47.060;15.460;2022-08-21T05:41:39;2.00;;;1.80;;
6860;SDS011;3469;47.060;15.460;2022-08-21T05:44:07;1.70;;;1.60;;
6860;SDS011;3469;47.060;15.460;2022-08-21T05:46:37;2.30;;;1.60;;
6860;SDS011;3469;47.060;15.460;2022-08-21T05:49:07;2.13;;;1.57;;
6860;SDS011;3469;47.060;15.460;2022-08-21T05:51:35;3.33;;;2.43;;
6860;SDS011;3469;47.060;15.460;2022-08-21T05:54:03;2.20;;;1.87;;
6860;SDS011;3469;47.060;15.460;2022-08-21T05:56:32;2.20;;;1.67;;
6860;SDS011;3469;47.060;15.460;2022-08-21T05:59:00;1.90;;;1.60;;
6860;SDS011;3469;47.060;15.460;2022-08-21T06:01:34;2.50;;;1.80;;
6860;SDS011;3469;47.060;15.460;2022-08-21T06:04:03;2.47;;;2.03;;
6860;SDS011;3469;47.060;15.460;2022-08-21T06:06:33;1.90;;;1.70;;
6860;SDS011;3469;47.060;15.460;2022-08-21T06:09:01;1.90;;;1.73;;
6860;SDS011;3469;47.060;15.460;2022-08-21T06:11:31;1.73;;;1.63;;
6860;SDS011;3469;47.060;15.460;2022-08-21T06:14:00;1.80;;;1.60;;
6860;SDS011;3469;47.060;15.460;2022-08-21T06:16:28;2.00;;;1.80;;
6860;SDS011;3469;47.060;15.460;2022-08-21T06:18:57;1.50;;;1.40;;
6860;SDS011;3469;47.060;15.460;2022-08-21T06:21:28;1.67;;;1.40;;
6860;SDS011;3469;47.060;15.460;2022-08-21T06:23:58;1.27;;;1.17;;
6860;SDS011;3469;47.060;15.460;2022-08-21T06:26:26;1.50;;;1.40;;
6860;SDS011;3469;47.060;15.460;2022-08-21T06:28:55;1.40;;;1.30;;
6860;SDS011;3469;47.060;15.460;2022-08-21T06:31:25;2.80;;;1.87;;
6860;SDS011;3469;47.060;15.460;2022-08-21T06:33:54;3.67;;;1.60;;
6860;SDS011;3469;47.060;15.460;2022-08-21T06:36:22;2.40;;;1.40;;
6860;SDS011;3469;47.060;15.460;2022-08-21T06:38:52;2.07;;;1.67;;
6860;SDS011;3469;47.060;15.460;2022-08-21T06:41:24;1.90;;;1.50;;
6860;SDS011;3469;47.060;15.460;2022-08-21T06:43:53;2.10;;;1.70;;
6860;SDS011;3469;47.060;15.460;2022-08-21T06:46:22;3.10;;;1.30;;
6860;SDS011;3469;47.060;15.460;2022-08-21T06:48:50;1.40;;;1.30;;
6860;SDS011;3469;47.060;15.460;2022-08-21T06:51:18;1.90;;;0.93;;
6860;SDS011;3469;47.060;15.460;2022-08-21T06:53:47;1.27;;;1.17;;
6860;SDS011;3469;47.060;15.460;2022-08-21T06:56:15;1.47;;;1.23;;
6860;SDS011;3469;47.060;15.460;2022-08-21T06:58:46;1.70;;;1.20;;
6860;SDS011;3469;47.060;15.460;2022-08-21T07:01:14;1.30;;;1.10;;
6860;SDS011;3469;47.060;15.460;2022-08-21T07:03:42;1.93;;;1.00;;
6860;SDS011;3469;47.060;15.460;2022-08-21T07:06:11;1.20;;;0.90;;
6860;SDS011;3469;47.060;15.460;2022-08-21T07:08:40;1.30;;;1.10;;
6860;SDS011;3469;47.060;15.460;2022-08-21T07:11:09;1.40;;;1.30;;
6860;SDS011;3469;47.060;15.460;2022-08-21T07:13:40;1.67;;;1.50;;
6860;SDS011;3469;47.060;15.460;2022-08-21T07:16:10;1.43;;;1.20;;
6860;SDS011;3469;47.060;15.460;2022-08-21T07:18:38;1.43;;;1.20;;
6860;SDS011;3469;47.060;15.460;2022-08-21T07:21:07;1.10;;;0.93;;
6860;SDS011;3469;47.060;15.460;2022-08-21T07:23:37;1.10;;;1.00;;
6860;SDS011;3469;47.060;15.460;2022-08-21T07:26:08;1.87;;;1.27;;
6860;SDS011;3469;47.060;15.460;2022-08-21T07:28:37;1.37;;;1.10;;
6860;SDS011;3469;47.060;15.460;2022-08-21T07:31:05;1.53;;;1.17;;
6860;SDS011;3469;47.060;15.460;2022-08-21T07:33:35;1.50;;;1.23;;
6860;SDS011;3469;47.060;15.460;2022-08-21T07:36:04;1.10;;;1.00;;
6860;SDS011;3469;47.060;15.460;2022-08-21T07:38:33;1.27;;;1.17;;
6860;SDS011;3469;47.060;15.460;2022-08-21T07:41:02;2.10;;;1.23;;
6860;SDS011;3469;47.060;15.460;2022-08-21T07:43:36;1.80;;;1.33;;
6860;SDS011;3469;47.060;15.460;2022-08-21T07:46:11;1.20;;;1.10;;
6860;SDS011;3469;47.060;15.460;2022-08-21T07:48:41;1.10;;;0.90;;
6860;SDS011;3469;47.060;15.460;2022-08-21T07:51:13;1.90;;;0.90;;
6860;SDS011;3469;47.060;15.460;2022-08-21T07:53:47;2.27;;;0.93;;
6860;SDS011;3469;47.060;15.460;2022-08-21T07:56:16;1.30;;;1.00;;
6860;SDS011;3469;47.060;15.460;2022-08-21T07:58:44;1.50;;;1.40;;
6860;SDS011;3469;47.060;15.460;2022-08-21T08:01:12;1.10;;;0.93;;
6860;SDS011;3469;47.060;15.460;2022-08-21T08:03:42;1.20;;;1.10;;
6860;SDS011;3469;47.060;15.460;2022-08-21T08:06:11;1.33;;;0.90;;
6860;SDS011;3469;47.060;15.460;2022-08-21T08:08:41;1.30;;;1.20;;
6860;SDS011;3469;47.060;15.460;2022-08-21T08:11:10;1.17;;;1.00;;
6860;SDS011;3469;47.060;15.460;2022-08-21T08:13:39;1.33;;;1.23;;
6860;SDS011;3469;47.060;15.460;2022-08-21T08:16:07;2.13;;;1.00;;
6860;SDS011;3469;47.060;15.460;2022-08-21T08:18:36;1.13;;;0.97;;
6860;SDS011;3469;47.060;15.460;2022-08-21T08:21:06;1.07;;;0.97;;
6860;SDS011;3469;47.060;15.460;2022-08-21T08:23:34;1.50;;;1.20;;
6860;SDS011;3469;47.060;15.460;2022-08-21T08:26:03;1.60;;;1.50;;
6860;SDS011;3469;47.060;15.460;2022-08-21T08:28:32;1.27;;;1.17;;
6860;SDS011;3469;47.060;15.460;2022-08-21T08:31:00;1.20;;;0.90;;
6860;SDS011;3469;47.060;15.460;2022-08-21T08:33:29;1.00;;;0.90;;
6860;SDS011;3469;47.060;15.460;2022-08-21T08:35:57;1.40;;;1.20;;
6860;SDS011;3469;47.060;15.460;2022-08-21T08:38:35;1.03;;;0.90;;
6860;SDS011;3469;47.060;15.460;2022-08-21T08:41:07;1.20;;;0.97;;
6860;SDS011;3469;47.060;15.460;2022-08-21T08:43:40;1.17;;;0.97;;
6860;SDS011;3469;47.060;15.460;2022-08-21T08:46:10;2.27;;;1.17;;
6860;SDS011;3469;47.060;15.460;2022-08-21T08:48:46;1.40;;;0.80;;
6860;SDS011;3469;47.060;15.460;2022-08-21T08:51:21;1.83;;;1.00;;
6860;SDS011;3469;47.060;15.460;2022-08-21T08:53:54;1.03;;;0.93;;
6860;SDS011;3469;47.060;15.460;2022-08-21T08:56:27;1.60;;;1.13;;
6860;SDS011;3469;47.060;15.460;2022-08-21T08:58:59;1.10;;;0.87;;
6860;SDS011;3469;47.060;15.460;2022-08-21T09:01:29;0.90;;;0.70;;
6860;SDS011;3469;47.060;15.460;2022-08-21T09:04:04;1.87;;;1.20;;
6860;SDS011;3469;47.060;15.460;2022-08-21T09:06:37;1.40;;;1.30;;
6860;SDS011;3469;47.060;15.460;2022-08-21T09:09:18;1.10;;;1.00;;
6860;SDS011;3469;47.060;15.460;2022-08-21T09:11:56;1.00;;;0.90;;
6860;SDS011;3469;47.060;15.460;2022-08-21T09:14:36;3.43;;;1.20;;
6860;SDS011;3469;47.060;15.460;2022-08-21T09:17:16;1.00;;;0.80;;
6860;SDS011;3469;47.060;15.460;2022-08-21T09:20:03;1.67;;;0.90;;
6860;SDS011;3469;47.060;15.460;2022-08-21T09:22:43;1.10;;;0.80;;
6860;SDS011;3469;47.060;15.460;2022-08-21T09:25:21;0.93;;;0.60;;
6860;SDS011;3469;47.060;15.460;2022-08-21T09:27:52;0.80;;;0.60;;
6860;SDS011;3469;47.060;15.460;2022-08-21T09:30:23;1.20;;;1.10;;
6860;SDS011;3469;47.060;15.460;2022-08-21T09:32:55;2.00;;;0.77;;
6860;SDS011;3469;47.060;15.460;2022-08-21T09:35:24;1.87;;;1.27;;
6860;SDS011;3469;47.060;15.460;2022-08-21T09:37:53;1.40;;;0.80;;
6860;SDS011;3469;47.060;15.460;2022-08-21T09:40:30;5.20;;;0.90;;
6860;SDS011;3469;47.060;15.460;2022-08-21T09:43:03;1.40;;;1.03;;
6860;SDS011;3469;47.060;15.460;2022-08-21T09:45:34;1.20;;;1.00;;
6860;SDS011;3469;47.060;15.460;2022-08-21T09:48:10;1.80;;;1.40;;
6860;SDS011;3469;47.060;15.460;2022-08-21T09:50:39;1.20;;;1.00;;
6860;SDS011;3469;47.060;15.460;2022-08-21T09:53:14;1.40;;;1.03;;
6860;SDS011;3469;47.060;15.460;2022-08-21T09:55:51;1.27;;;1.03;;
6860;SDS011;3469;47.060;15.460;2022-08-21T09:58:38;1.30;;;1.17;;
6860;SDS011;3469;47.060;15.460;2022-08-21T10:01:12;0.90;;;0.80;;
6860;SDS011;3469;47.060;15.460;2022-08-21T10:03:42;1.93;;;1.40;;
6860;SDS011;3469;47.060;15.460;2022-08-21T10:06:19;1.70;;;1.07;;
6860;SDS011;3469;47.060;15.460;2022-08-21T10:08:50;1.10;;;0.93;;
6860;SDS011;3469;47.060;15.460;2022-08-21T10:11:23;1.20;;;0.90;;
6860;SDS011;3469;47.060;15.460;2022-08-21T10:13:56;1.67;;;1.10;;
6860;SDS011;3469;47.060;15.460;2022-08-21T10:16:30;2.83;;;1.20;;
6860;SDS011;3469;47.060;15.460;2022-08-21T10:19:11;1.20;;;1.10;;
6860;SDS011;3469;47.060;15.460;2022-08-21T10:21:46;1.13;;;1.03;;
6860;SDS011;3469;47.060;15.460;2022-08-21T10:24:25;1.30;;;1.13;;
6860;SDS011;3469;47.060;15.460;2022-08-21T10:27:02;1.30;;;1.10;;
6860;SDS011;3469;47.060;15.460;2022-08-21T10:29:42;1.47;;;1.17;;
6860;SDS011;3469;47.060;15.460;2022-08-21T10:32:19;1.07;;;0.97;;
6860;SDS011;3469;47.060;15.460;2022-08-21T10:34:57;1.43;;;1.20;;
6860;SDS011;3469;47.060;15.460;2022-08-21T10:37:31;1.40;;;1.00;;
6860;SDS011;3469;47.060;15.460;2022-08-21T10:40:10;2.00;;;0.90;;
6860;SDS011;3469;47.060;15.460;2022-08-21T10:42:49;1.03;;;0.90;;
6860;SDS011;3469;47.060;15.460;2022-08-21T10:45:31;1.10;;;0.93;;
6860;SDS011;3469;47.060;15.460;2022-08-21T10:48:05;1.30;;;1.10;;
6860;SDS011;3469;47.060;15.460;2022-08-21T10:50:36;1.37;;;1.17;;
6860;SDS011;3469;47.060;15.460;2022-08-21T10:53:31;1.80;;;1.33;;
6860;SDS011;3469;47.060;15.460;2022-08-21T10:56:12;1.87;;;1.30;;
6860;SDS011;3469;47.060;15.460;2022-08-21T10:59:03;1.20;;;1.10;;
6860;SDS011;3469;47.060;15.460;2022-08-21T11:01:41;1.20;;;1.00;;
6860;SDS011;3469;47.060;15.460;2022-08-21T11:04:15;1.17;;;0.90;;
6860;SDS011;3469;47.060;15.460;2022-08-21T11:06:46;1.40;;;1.10;;
6860;SDS011;3469;47.060;15.460;2022-08-21T11:09:19;0.90;;;0.80;;
6860;SDS011;3469;47.060;15.460;2022-08-21T11:21:29;1.10;;;0.90;;
6860;SDS011;3469;47.060;15.460;2022-08-21T11:24:06;1.20;;;0.80;;
6860;SDS011;3469;47.060;15.460;2022-08-21T11:33:09;1.00;;;0.80;;
6860;SDS011;3469;47.060;15.460;2022-08-21T11:35:53;1.70;;;1.17;;
6860;SDS011;3469;47.060;15.460;2022-08-21T11:38:35;1.13;;;0.97;;
6860;SDS011;3469;47.060;15.460;2022-08-21T11:41:19;1.10;;;0.90;;
6860;SDS011;3469;47.060;15.460;2022-08-21T11:43:55;0.80;;;0.70;;
6860;SDS011;3469;47.060;15.460;2022-08-21T11:46:36;0.80;;;0.53;;
6860;SDS011;3469;47.060;15.460;2022-08-21T11:49:16;1.00;;;0.73;;
6860;SDS011;3469;47.060;15.460;2022-08-21T11:52:09;1.40;;;0.70;;
6860;SDS011;3469;47.060;15.460;2022-08-21T11:54:44;1.33;;;0.70;;
6860;SDS011;3469;47.060;15.460;2022-08-21T11:57:19;1.10;;;0.60;;
6860;SDS011;3469;47.060;15.460;2022-08-21T12:00:13;1.00;;;0.50;;
6860;SDS011;3469;47.060;15.460;2022-08-21T12:03:06;1.17;;;0.63;;
6860;SDS011;3469;47.060;15.460;2022-08-21T12:05:38;0.80;;;0.60;;
6860;SDS011;3469;47.060;15.460;2022-08-21T12:08:10;1.00;;;0.70;;
6860;SDS011;3469;47.060;15.460;2022-08-21T12:10:42;1.30;;;0.90;;
6860;SDS011;3469;47.060;15.460;2022-08-21T12:13:22;0.60;;;0.40;;
6860;SDS011;3469;47.060;15.460;2022-08-21T12:16:07;0.80;;;0.50;;
6860;SDS011;3469;47.060;15.460;2022-08-21T12:18:37;0.73;;;0.60;;
6860;SDS011;3469;47.060;15.460;2022-08-21T12:21:16;1.27;;;0.60;;
6860;SDS011;3469;47.060;15.460;2022-08-21T12:23:48;0.70;;;0.50;;
6860;SDS011;3469;47.060;15.460;2022-08-21T12:26:31;0.80;;;0.67;;
6860;SDS011;3469;47.060;15.460;2022-08-21T12:31:52;0.60;;;0.40;;
6860;SDS011;3469;47.060;15.460;2022-08-21T12:34:23;1.20;;;0.50;;
6860;SDS011;3469;47.060;15.460;2022-08-21T12:36:55;1.20;;;0.53;;
6860;SDS011;3469;47.060;15.460;2022-08-21T12:39:26;0.90;;;0.60;;
6860;SDS011;3469;47.060;15.460;2022-08-21T12:41:59;0.70;;;0.60;;
6860;SDS011;3469;47.060;15.460;2022-08-21T12:44:31;1.30;;;0.97;;
6860;SDS011;3469;47.060;15.460;2022-08-21T12:47:05;1.00;;;0.70;;
6860;SDS011;3469;47.060;15.460;2022-08-21T12:49:35;1.00;;;0.53;;
6860;SDS011;3469;47.060;15.460;2022-08-21T12:52:07;1.03;;;0.60;;
6860;SDS011;3469;47.060;15.460;2022-08-21T12:54:41;1.30;;;0.70;;
6860;SDS011;3469;47.060;15.460;2022-08-21T12:57:18;1.00;;;0.73;;
6860;SDS011;3469;47.060;15.460;2022-08-21T12:59:52;0.70;;;0.50;;
6860;SDS011;3469;47.060;15.460;2022-08-21T13:02:35;0.70;;;0.53;;
6860;SDS011;3469;47.060;15.460;2022-08-21T13:05:06;1.30;;;0.70;;
6860;SDS011;3469;47.060;15.460;2022-08-21T13:07:36;1.07;;;0.80;;
6860;SDS011;3469;47.060;15.460;2022-08-21T13:10:06;1.00;;;0.60;;
6860;SDS011;3469;47.060;15.460;2022-08-21T13:12:42;0.80;;;0.50;;
6860;SDS011;3469;47.060;15.460;2022-08-21T13:15:11;0.83;;;0.50;;
6860;SDS011;3469;47.060;15.460;2022-08-21T13:17:41;1.00;;;0.50;;
6860;SDS011;3469;47.060;15.460;2022-08-21T13:20:18;0.70;;;0.50;;
6860;SDS011;3469;47.060;15.460;2022-08-21T13:22:49;0.70;;;0.37;;
6860;SDS011;3469;47.060;15.460;2022-08-21T13:25:18;0.97;;;0.60;;
6860;SDS011;3469;47.060;15.460;2022-08-21T13:27:58;0.87;;;0.47;;
6860;SDS011;3469;47.060;15.460;2022-08-21T13:30:28;0.80;;;0.40;;
6860;SDS011;3469;47.060;15.460;2022-08-21T13:32:58;0.67;;;0.40;;
6860;SDS011;3469;47.060;15.460;2022-08-21T13:35:29;0.60;;;0.40;;
6860;SDS011;3469;47.060;15.460;2022-08-21T13:37:59;0.70;;;0.40;;
6860;SDS011;3469;47.060;15.460;2022-08-21T13:40:29;0.50;;;0.30;;
6860;SDS011;3469;47.060;15.460;2022-08-21T13:43:01;0.70;;;0.40;;
6860;SDS011;3469;47.060;15.460;2022-08-21T13:45:30;1.10;;;0.50;;
6860;SDS011;3469;47.060;15.460;2022-08-21T13:48:00;0.97;;;0.50;;
6860;SDS011;3469;47.060;15.460;2022-08-21T13:50:33;0.77;;;0.50;;
6860;SDS011;3469;47.060;15.460;2022-08-21T13:53:03;1.80;;;1.70;;
6860;SDS011;3469;47.060;15.460;2022-08-21T13:55:37;0.70;;;0.40;;
6860;SDS011;3469;47.060;15.460;2022-08-21T13:58:08;0.90;;;0.60;;
6860;SDS011;3469;47.060;15.460;2022-08-21T14:00:43;0.90;;;0.57;;
6860;SDS011;3469;47.060;15.460;2022-08-21T14:03:13;1.07;;;0.60;;
6860;SDS011;3469;47.060;15.460;2022-08-21T14:05:53;1.00;;;0.60;;
6860;SDS011;3469;47.060;15.460;2022-08-21T14:08:27;1.10;;;0.50;;
6860;SDS011;3469;47.060;15.460;2022-08-21T14:10:58;0.60;;;0.43;;
6860;SDS011;3469;47.060;15.460;2022-08-21T14:13:30;1.60;;;0.50;;
6860;SDS011;3469;47.060;15.460;2022-08-21T14:16:12;2.00;;;0.50;;
6860;SDS011;3469;47.060;15.460;2022-08-21T14:18:43;0.90;;;0.67;;
6860;SDS011;3469;47.060;15.460;2022-08-21T14:21:24;0.87;;;0.60;;
6860;SDS011;3469;47.060;15.460;2022-08-21T14:23:59;0.80;;;0.63;;
6860;SDS011;3469;47.060;15.460;2022-08-21T14:26:30;0.80;;;0.47;;
6860;SDS011;3469;47.060;15.460;2022-08-21T14:29:00;2.30;;;1.33;;
6860;SDS011;3469;47.060;15.460;2022-08-21T14:31:36;0.83;;;0.50;;
6860;SDS011;3469;47.060;15.460;2022-08-21T14:34:10;2.33;;;0.80;;
6860;SDS011;3469;47.060;15.460;2022-08-21T14:36:46;1.00;;;0.60;;
6860;SDS011;3469;47.060;15.460;2022-08-21T14:39:15;1.10;;;0.90;;
6860;SDS011;3469;47.060;15.460;2022-08-21T14:41:43;0.93;;;0.63;;
6860;SDS011;3469;47.060;15.460;2022-08-21T14:44:17;0.80;;;0.50;;
6860;SDS011;3469;47.060;15.460;2022-08-21T14:46:46;1.27;;;0.60;;
6860;SDS011;3469;47.060;15.460;2022-08-21T14:49:23;1.00;;;0.70;;
6860;SDS011;3469;47.060;15.460;2022-08-21T14:51:54;0.80;;;0.60;;
6860;SDS011;3469;47.060;15.460;2022-08-21T14:54:25;0.70;;;0.57;;
6860;SDS011;3469;47.060;15.460;2022-08-21T14:56:58;0.73;;;0.60;;
6860;SDS011;3469;47.060;15.460;2022-08-21T14:59:29;1.03;;;0.80;;
6860;SDS011;3469;47.060;15.460;2022-08-21T15:02:00;1.00;;;0.60;;
6860;SDS011;3469;47.060;15.460;2022-08-21T15:04:30;2.40;;;1.30;;
6860;SDS011;3469;47.060;15.460;2022-08-21T15:06:59;1.17;;;1.07;;
6860;SDS011;3469;47.060;15.460;2022-08-21T15:09:27;0.83;;;0.60;;
6860;SDS011;3469;47.060;15.460;2022-08-21T15:11:57;1.00;;;0.73;;
6860;SDS011;3469;47.060;15.460;2022-08-21T15:14:27;1.40;;;1.10;;
6860;SDS011;3469;47.060;15.460;2022-08-21T15:16:59;1.37;;;1.27;;
6860;SDS011;3469;47.060;15.460;2022-08-21T15:19:27;2.97;;;1.30;;
6860;SDS011;3469;47.060;15.460;2022-08-21T15:21:56;1.40;;;1.10;;
6860;SDS011;3469;47.060;15.460;2022-08-21T15:24:24;1.20;;;0.97;;
6860;SDS011;3469;47.060;15.460;2022-08-21T15:26:53;3.83;;;1.00;;
6860;SDS011;3469;47.060;15.460;2022-08-21T15:29:22;1.97;;;1.10;;
6860;SDS011;3469;47.060;15.460;2022-08-21T15:32:00;1.17;;;0.93;;
6860;SDS011;3469;47.060;15.460;2022-08-21T15:34:29;1.37;;;1.27;;
6860;SDS011;3469;47.060;15.460;2022-08-21T15:36:58;2.00;;;1.30;;
6860;SDS011;3469;47.060;15.460;2022-08-21T15:39:27;1.10;;;0.83;;
6860;SDS011;3469;47.060;15.460;2022-08-21T15:41:59;1.90;;;1.10;;
6860;SDS011;3469;47.060;15.460;2022-08-21T15:44:37;1.70;;;1.03;;
6860;SDS011;3469;47.060;15.460;2022-08-21T15:47:07;1.60;;;1.27;;